sensor_id;sensor_type;location;lat;lon;timestamp;temperature;humidity
64705;DHT22;51131;52.298;13.686;2022-07-21T00:00:12;21.30;73.90
64705;DHT22;51131;52.298;13.686;2022-07-21T00:02:39;21.30;73.40
64705;DHT22;51131;52.298;13.686;2022-07-21T00:05:06;21.40;73.00
64705;DHT22;51131;52.298;13.686;2022-07-21T00:07:32;21.40;73.00
64705;DHT22;51131;52.298;13.686;2022-07-21T00:10:00;21.40;73.00
64705;DHT22;51131;52.298;13.686;2022-07-21T00:12:26;21.40;72.90
64705;DHT22;51131;52.298;13.686;2022-07-21T00:14:53;21.40;72.90
64705;DHT22;51131;52.298;13.686;2022-07-21T00:17:20;21.50;73.00
64705;DHT22;51131;52.298;13.686;2022-07-21T00:19:46;21.50;73.00
64705;DHT22;51131;52.298;13.686;2022-07-21T00:22:13;21.50;72.90
64705;DHT22;51131;52.298;13.686;2022-07-21T00:24:40;21.50;72.80
64705;DHT22;51131;52.298;13.686;2022-07-21T00:27:06;21.50;72.80
64705;DHT22;51131;52.298;13.686;2022-07-21T00:29:33;21.50;72.70
64705;DHT22;51131;52.298;13.686;2022-07-21T00:32:00;21.50;72.70
64705;DHT22;51131;52.298;13.686;2022-07-21T00:34:27;21.50;72.70
64705;DHT22;51131;52.298;13.686;2022-07-21T00:36:53;21.50;72.70
64705;DHT22;51131;52.298;13.686;2022-07-21T00:39:20;21.60;72.60
64705;DHT22;51131;52.298;13.686;2022-07-21T00:41:47;21.50;72.50
64705;DHT22;51131;52.298;13.686;2022-07-21T00:44:20;21.50;72.60
64705;DHT22;51131;52.298;13.686;2022-07-21T00:46:47;21.60;72.70
64705;DHT22;51131;52.298;13.686;2022-07-21T00:49:14;21.50;72.50
64705;DHT22;51131;52.298;13.686;2022-07-21T00:51:41;21.60;72.50
64705;DHT22;51131;52.298;13.686;2022-07-21T00:54:07;21.60;72.50
64705;DHT22;51131;52.298;13.686;2022-07-21T00:56:34;21.60;72.40
64705;DHT22;51131;52.298;13.686;2022-07-21T00:59:01;21.50;72.30
64705;DHT22;51131;52.298;13.686;2022-07-21T01:01:28;21.60;72.40
64705;DHT22;51131;52.298;13.686;2022-07-21T01:03:54;21.60;72.30
64705;DHT22;51131;52.298;13.686;2022-07-21T01:06:23;21.50;72.30
64705;DHT22;51131;52.298;13.686;2022-07-21T01:08:51;21.60;72.40
64705;DHT22;51131;52.298;13.686;2022-07-21T01:11:19;21.60;72.40
64705;DHT22;51131;52.298;13.686;2022-07-21T01:13:47;21.50;72.30
64705;DHT22;51131;52.298;13.686;2022-07-21T01:16:14;21.60;72.30
64705;DHT22;51131;52.298;13.686;2022-07-21T01:18:40;21.50;72.30
64705;DHT22;51131;52.298;13.686;2022-07-21T01:23:53;21.60;72.50
64705;DHT22;51131;52.298;13.686;2022-07-21T01:26:19;21.50;72.50
64705;DHT22;51131;52.298;13.686;2022-07-21T01:28:46;21.60;72.60
64705;DHT22;51131;52.298;13.686;2022-07-21T01:31:13;21.50;72.60
64705;DHT22;51131;52.298;13.686;2022-07-21T01:33:40;21.50;72.70
64705;DHT22;51131;52.298;13.686;2022-07-21T01:36:07;21.50;72.70
64705;DHT22;51131;52.298;13.686;2022-07-21T01:38:34;21.50;72.70
64705;DHT22;51131;52.298;13.686;2022-07-21T01:41:20;21.50;72.70
64705;DHT22;51131;52.298;13.686;2022-07-21T01:44:05;21.50;72.70
64705;DHT22;51131;52.298;13.686;2022-07-21T01:46:34;21.50;72.80
64705;DHT22;51131;52.298;13.686;2022-07-21T01:49:01;21.50;72.80
64705;DHT22;51131;52.298;13.686;2022-07-21T01:51:28;21.50;72.90
64705;DHT22;51131;52.298;13.686;2022-07-21T01:53:55;21.50;72.90
64705;DHT22;51131;52.298;13.686;2022-07-21T01:56:22;21.50;72.90
64705;DHT22;51131;52.298;13.686;2022-07-21T01:58:50;21.50;73.00
64705;DHT22;51131;52.298;13.686;2022-07-21T02:01:17;21.50;73.00
64705;DHT22;51131;52.298;13.686;2022-07-21T02:03:45;21.50;73.10
64705;DHT22;51131;52.298;13.686;2022-07-21T02:06:12;21.50;73.00
64705;DHT22;51131;52.298;13.686;2022-07-21T02:08:39;21.50;73.10
64705;DHT22;51131;52.298;13.686;2022-07-21T02:11:06;21.50;73.10
64705;DHT22;51131;52.298;13.686;2022-07-21T02:13:32;21.50;73.10
64705;DHT22;51131;52.298;13.686;2022-07-21T02:15:59;21.50;73.30
64705;DHT22;51131;52.298;13.686;2022-07-21T02:18:26;21.40;73.00
64705;DHT22;51131;52.298;13.686;2022-07-21T02:20:52;21.50;73.20
64705;DHT22;51131;52.298;13.686;2022-07-21T02:23:21;21.40;73.10
64705;DHT22;51131;52.298;13.686;2022-07-21T02:25:48;21.50;73.20
64705;DHT22;51131;52.298;13.686;2022-07-21T02:28:15;21.40;73.10
64705;DHT22;51131;52.298;13.686;2022-07-21T02:30:42;21.90;73.60
64705;DHT22;51131;52.298;13.686;2022-07-21T02:33:09;23.30;75.00
64705;DHT22;51131;52.298;13.686;2022-07-21T02:35:36;21.40;73.20
64705;DHT22;51131;52.298;13.686;2022-07-21T02:38:04;21.50;73.30
64705;DHT22;51131;52.298;13.686;2022-07-21T02:40:30;21.40;73.30
64705;DHT22;51131;52.298;13.686;2022-07-21T02:42:57;21.50;73.40
64705;DHT22;51131;52.298;13.686;2022-07-21T02:45:24;21.40;73.40
64705;DHT22;51131;52.298;13.686;2022-07-21T02:47:56;21.40;73.30
64705;DHT22;51131;52.298;13.686;2022-07-21T02:50:24;21.40;73.40
64705;DHT22;51131;52.298;13.686;2022-07-21T02:52:58;21.40;73.50
64705;DHT22;51131;52.298;13.686;2022-07-21T02:55:26;21.40;73.40
64705;DHT22;51131;52.298;13.686;2022-07-21T03:01:05;21.40;73.40
64705;DHT22;51131;52.298;13.686;2022-07-21T03:03:33;21.40;73.30
64705;DHT22;51131;52.298;13.686;2022-07-21T03:06:00;21.40;73.00
64705;DHT22;51131;52.298;13.686;2022-07-21T03:08:28;21.40;73.20
64705;DHT22;51131;52.298;13.686;2022-07-21T03:10:55;21.40;73.00
64705;DHT22;51131;52.298;13.686;2022-07-21T03:13:21;22.00;73.60
64705;DHT22;51131;52.298;13.686;2022-07-21T03:15:48;21.40;73.10
64705;DHT22;51131;52.298;13.686;2022-07-21T03:18:15;21.40;73.20
64705;DHT22;51131;52.298;13.686;2022-07-21T03:20:44;22.50;74.10
64705;DHT22;51131;52.298;13.686;2022-07-21T03:23:11;21.40;72.90
64705;DHT22;51131;52.298;13.686;2022-07-21T03:25:38;21.40;72.90
64705;DHT22;51131;52.298;13.686;2022-07-21T03:28:05;21.40;73.00
64705;DHT22;51131;52.298;13.686;2022-07-21T03:30:34;21.40;72.90
64705;DHT22;51131;52.298;13.686;2022-07-21T03:33:01;21.40;73.10
64705;DHT22;51131;52.298;13.686;2022-07-21T03:35:27;21.40;73.20
64705;DHT22;51131;52.298;13.686;2022-07-21T03:37:55;21.40;73.30
64705;DHT22;51131;52.298;13.686;2022-07-21T03:40:23;21.50;73.50
64705;DHT22;51131;52.298;13.686;2022-07-21T03:42:51;21.40;73.30
64705;DHT22;51131;52.298;13.686;2022-07-21T03:45:18;21.40;73.40
64705;DHT22;51131;52.298;13.686;2022-07-21T03:47:45;21.40;73.50
64705;DHT22;51131;52.298;13.686;2022-07-21T03:50:12;21.40;73.30
64705;DHT22;51131;52.298;13.686;2022-07-21T03:52:39;21.40;73.60
64705;DHT22;51131;52.298;13.686;2022-07-21T03:55:06;21.40;73.60
64705;DHT22;51131;52.298;13.686;2022-07-21T03:57:42;21.40;73.60
64705;DHT22;51131;52.298;13.686;2022-07-21T04:00:11;21.40;73.70
64705;DHT22;51131;52.298;13.686;2022-07-21T04:02:38;21.30;73.70
64705;DHT22;51131;52.298;13.686;2022-07-21T04:05:05;21.30;73.50
64705;DHT22;51131;52.298;13.686;2022-07-21T04:07:32;21.30;73.70
64705;DHT22;51131;52.298;13.686;2022-07-21T04:09:59;21.40;73.90
64705;DHT22;51131;52.298;13.686;2022-07-21T04:12:26;21.30;73.70
64705;DHT22;51131;52.298;13.686;2022-07-21T04:14:54;21.40;73.70
64705;DHT22;51131;52.298;13.686;2022-07-21T04:17:21;21.30;73.60
64705;DHT22;51131;52.298;13.686;2022-07-21T04:19:48;21.30;73.80
64705;DHT22;51131;52.298;13.686;2022-07-21T04:22:22;21.30;73.70
64705;DHT22;51131;52.298;13.686;2022-07-21T04:24:49;21.30;73.90
64705;DHT22;51131;52.298;13.686;2022-07-21T04:27:16;21.30;74.00
64705;DHT22;51131;52.298;13.686;2022-07-21T04:29:43;21.30;73.80
64705;DHT22;51131;52.298;13.686;2022-07-21T04:32:09;21.30;73.90
64705;DHT22;51131;52.298;13.686;2022-07-21T04:34:36;21.30;74.00
64705;DHT22;51131;52.298;13.686;2022-07-21T04:37:03;21.30;74.00
64705;DHT22;51131;52.298;13.686;2022-07-21T04:39:29;22.40;75.10
64705;DHT22;51131;52.298;13.686;2022-07-21T04:41:56;21.30;74.10
64705;DHT22;51131;52.298;13.686;2022-07-21T04:44:23;21.30;74.20
64705;DHT22;51131;52.298;13.686;2022-07-21T04:46:50;21.30;74.20
64705;DHT22;51131;52.298;13.686;2022-07-21T04:49:17;21.30;74.20
64705;DHT22;51131;52.298;13.686;2022-07-21T04:51:44;21.30;74.30
64705;DHT22;51131;52.298;13.686;2022-07-21T04:54:11;21.30;74.30
64705;DHT22;51131;52.298;13.686;2022-07-21T04:56:40;21.30;74.30
64705;DHT22;51131;52.298;13.686;2022-07-21T04:59:07;21.30;74.40
64705;DHT22;51131;52.298;13.686;2022-07-21T05:01:34;21.30;74.30
64705;DHT22;51131;52.298;13.686;2022-07-21T05:04:01;21.30;73.90
64705;DHT22;51131;52.298;13.686;2022-07-21T05:06:28;21.30;73.40
64705;DHT22;51131;52.298;13.686;2022-07-21T05:08:55;21.40;73.10
64705;DHT22;51131;52.298;13.686;2022-07-21T05:11:23;21.40;73.10
64705;DHT22;51131;52.298;13.686;2022-07-21T05:13:49;21.40;73.20
64705;DHT22;51131;52.298;13.686;2022-07-21T05:16:16;21.40;73.10
64705;DHT22;51131;52.298;13.686;2022-07-21T05:18:44;21.40;73.10
64705;DHT22;51131;52.298;13.686;2022-07-21T05:21:11;21.50;73.20
64705;DHT22;51131;52.298;13.686;2022-07-21T05:23:38;21.50;73.20
64705;DHT22;51131;52.298;13.686;2022-07-21T05:26:05;21.50;73.10
64705;DHT22;51131;52.298;13.686;2022-07-21T05:28:31;21.50;73.20
64705;DHT22;51131;52.298;13.686;2022-07-21T05:30:58;21.50;73.20
64705;DHT22;51131;52.298;13.686;2022-07-21T05:33:25;21.50;73.20
64705;DHT22;51131;52.298;13.686;2022-07-21T05:35:52;21.50;73.10
64705;DHT22;51131;52.298;13.686;2022-07-21T05:38:18;21.50;73.10
64705;DHT22;51131;52.298;13.686;2022-07-21T05:40:53;21.70;73.90
64705;DHT22;51131;52.298;13.686;2022-07-21T05:43:19;21.50;73.10
64705;DHT22;51131;52.298;13.686;2022-07-21T05:45:46;21.60;73.10
64705;DHT22;51131;52.298;13.686;2022-07-21T05:48:13;21.50;73.10
64705;DHT22;51131;52.298;13.686;2022-07-21T05:50:41;21.50;73.10
64705;DHT22;51131;52.298;13.686;2022-07-21T05:53:07;21.50;73.20
64705;DHT22;51131;52.298;13.686;2022-07-21T05:55:34;21.50;73.10
64705;DHT22;51131;52.298;13.686;2022-07-21T05:58:01;22.00;73.60
64705;DHT22;51131;52.298;13.686;2022-07-21T06:00:36;21.60;73.20
64705;DHT22;51131;52.298;13.686;2022-07-21T06:03:03;21.60;73.20
64705;DHT22;51131;52.298;13.686;2022-07-21T06:05:37;21.60;73.20
64705;DHT22;51131;52.298;13.686;2022-07-21T06:08:04;21.60;73.10
64705;DHT22;51131;52.298;13.686;2022-07-21T06:10:31;22.90;74.60
64705;DHT22;51131;52.298;13.686;2022-07-21T06:12:59;21.60;73.10
64705;DHT22;51131;52.298;13.686;2022-07-21T06:15:26;21.70;72.10
64705;DHT22;51131;52.298;13.686;2022-07-21T06:17:53;21.80;72.00
64705;DHT22;51131;52.298;13.686;2022-07-21T06:20:20;21.90;71.50
64705;DHT22;51131;52.298;13.686;2022-07-21T06:22:48;21.90;71.70
64705;DHT22;51131;52.298;13.686;2022-07-21T06:25:14;22.00;71.60
64705;DHT22;51131;52.298;13.686;2022-07-21T06:27:41;22.00;71.50
64705;DHT22;51131;52.298;13.686;2022-07-21T06:30:08;22.00;71.60
64705;DHT22;51131;52.298;13.686;2022-07-21T06:32:35;22.00;72.10
64705;DHT22;51131;52.298;13.686;2022-07-21T06:35:02;22.00;72.30
64705;DHT22;51131;52.298;13.686;2022-07-21T06:37:29;22.00;72.50
64705;DHT22;51131;52.298;13.686;2022-07-21T06:39:56;22.00;72.50
64705;DHT22;51131;52.298;13.686;2022-07-21T06:42:23;21.90;72.50
64705;DHT22;51131;52.298;13.686;2022-07-21T06:44:49;21.90;72.70
64705;DHT22;51131;52.298;13.686;2022-07-21T06:47:19;21.90;72.90
64705;DHT22;51131;52.298;13.686;2022-07-21T06:49:46;22.00;73.10
64705;DHT22;51131;52.298;13.686;2022-07-21T06:52:12;21.90;72.90
64705;DHT22;51131;52.298;13.686;2022-07-21T06:54:39;21.90;73.00
64705;DHT22;51131;52.298;13.686;2022-07-21T06:57:06;21.90;73.00
64705;DHT22;51131;52.298;13.686;2022-07-21T06:59:33;21.90;73.00
64705;DHT22;51131;52.298;13.686;2022-07-21T07:02:00;21.90;73.20
64705;DHT22;51131;52.298;13.686;2022-07-21T07:04:27;21.90;73.20
64705;DHT22;51131;52.298;13.686;2022-07-21T07:06:55;21.90;73.30
64705;DHT22;51131;52.298;13.686;2022-07-21T07:09:22;21.80;73.10
64705;DHT22;51131;52.298;13.686;2022-07-21T07:11:49;21.80;73.20
64705;DHT22;51131;52.298;13.686;2022-07-21T07:14:38;21.80;73.30
64705;DHT22;51131;52.298;13.686;2022-07-21T07:17:05;21.80;73.20
64705;DHT22;51131;52.298;13.686;2022-07-21T07:19:32;21.80;73.10
64705;DHT22;51131;52.298;13.686;2022-07-21T07:21:59;21.80;73.20
64705;DHT22;51131;52.298;13.686;2022-07-21T07:24:26;21.80;73.30
64705;DHT22;51131;52.298;13.686;2022-07-21T07:26:52;21.80;73.30
64705;DHT22;51131;52.298;13.686;2022-07-21T07:29:19;21.80;73.30
64705;DHT22;51131;52.298;13.686;2022-07-21T07:31:46;21.80;73.40
64705;DHT22;51131;52.298;13.686;2022-07-21T07:34:13;21.80;73.40
64705;DHT22;51131;52.298;13.686;2022-07-21T07:36:40;21.80;73.50
64705;DHT22;51131;52.298;13.686;2022-07-21T07:39:10;21.80;73.50
64705;DHT22;51131;52.298;13.686;2022-07-21T07:41:37;21.80;73.50
64705;DHT22;51131;52.298;13.686;2022-07-21T07:44:04;21.80;73.50
64705;DHT22;51131;52.298;13.686;2022-07-21T07:46:31;21.70;73.30
64705;DHT22;51131;52.298;13.686;2022-07-21T07:48:58;21.70;73.40
64705;DHT22;51131;52.298;13.686;2022-07-21T07:51:37;21.80;73.50
64705;DHT22;51131;52.298;13.686;2022-07-21T07:54:03;21.80;73.70
64705;DHT22;51131;52.298;13.686;2022-07-21T07:56:30;21.80;73.60
64705;DHT22;51131;52.298;13.686;2022-07-21T07:58:57;21.80;73.70
64705;DHT22;51131;52.298;13.686;2022-07-21T08:01:24;21.80;73.70
64705;DHT22;51131;52.298;13.686;2022-07-21T08:03:51;21.80;73.70
64705;DHT22;51131;52.298;13.686;2022-07-21T08:06:18;21.80;73.70
64705;DHT22;51131;52.298;13.686;2022-07-21T08:08:45;21.70;73.70
64705;DHT22;51131;52.298;13.686;2022-07-21T08:11:11;21.80;73.80
64705;DHT22;51131;52.298;13.686;2022-07-21T08:13:39;20.50;72.70
64705;DHT22;51131;52.298;13.686;2022-07-21T08:16:06;21.70;73.80
64705;DHT22;51131;52.298;13.686;2022-07-21T08:18:33;21.80;73.90
64705;DHT22;51131;52.298;13.686;2022-07-21T08:21:00;21.80;73.90
64705;DHT22;51131;52.298;13.686;2022-07-21T08:23:27;21.80;73.80
64705;DHT22;51131;52.298;13.686;2022-07-21T08:25:54;21.80;73.80
64705;DHT22;51131;52.298;13.686;2022-07-21T08:28:21;21.80;73.80
64705;DHT22;51131;52.298;13.686;2022-07-21T08:30:48;21.80;73.80
64705;DHT22;51131;52.298;13.686;2022-07-21T08:33:14;21.70;73.80
64705;DHT22;51131;52.298;13.686;2022-07-21T08:35:41;21.70;74.00
64705;DHT22;51131;52.298;13.686;2022-07-21T08:38:08;20.80;72.80
64705;DHT22;51131;52.298;13.686;2022-07-21T08:40:37;21.70;73.60
64705;DHT22;51131;52.298;13.686;2022-07-21T08:43:04;21.70;73.70
64705;DHT22;51131;52.298;13.686;2022-07-21T08:45:31;21.70;73.70
64705;DHT22;51131;52.298;13.686;2022-07-21T08:47:58;21.70;73.80
64705;DHT22;51131;52.298;13.686;2022-07-21T08:50:26;21.70;73.70
64705;DHT22;51131;52.298;13.686;2022-07-21T08:52:55;21.70;73.80
64705;DHT22;51131;52.298;13.686;2022-07-21T08:55:33;21.70;73.70
64705;DHT22;51131;52.298;13.686;2022-07-21T08:58:00;21.70;73.80
64705;DHT22;51131;52.298;13.686;2022-07-21T09:00:33;21.70;73.80
64705;DHT22;51131;52.298;13.686;2022-07-21T09:05:35;21.70;73.80
64705;DHT22;51131;52.298;13.686;2022-07-21T09:08:02;21.70;74.50
64705;DHT22;51131;52.298;13.686;2022-07-21T09:10:29;21.70;73.80
64705;DHT22;51131;52.298;13.686;2022-07-21T09:12:58;21.70;74.00
64705;DHT22;51131;52.298;13.686;2022-07-21T09:15:26;21.70;73.80
64705;DHT22;51131;52.298;13.686;2022-07-21T09:18:09;21.70;73.80
64705;DHT22;51131;52.298;13.686;2022-07-21T09:20:46;21.70;73.90
64705;DHT22;51131;52.298;13.686;2022-07-21T09:23:14;21.70;73.90
64705;DHT22;51131;52.298;13.686;2022-07-21T09:25:43;21.70;73.70
64705;DHT22;51131;52.298;13.686;2022-07-21T09:28:17;21.70;73.80
64705;DHT22;51131;52.298;13.686;2022-07-21T09:30:52;21.70;73.90
64705;DHT22;51131;52.298;13.686;2022-07-21T09:33:20;21.70;73.90
64705;DHT22;51131;52.298;13.686;2022-07-21T09:38:26;20.50;72.70
64705;DHT22;51131;52.298;13.686;2022-07-21T09:40:53;21.70;74.10
64705;DHT22;51131;52.298;13.686;2022-07-21T09:43:37;21.70;74.10
64705;DHT22;51131;52.298;13.686;2022-07-21T09:46:11;21.70;74.00
64705;DHT22;51131;52.298;13.686;2022-07-21T09:48:39;21.70;73.90
64705;DHT22;51131;52.298;13.686;2022-07-21T09:53:54;21.70;74.00
64705;DHT22;51131;52.298;13.686;2022-07-21T09:56:21;21.70;74.00
64705;DHT22;51131;52.298;13.686;2022-07-21T09:58:50;21.70;74.00
64705;DHT22;51131;52.298;13.686;2022-07-21T10:01:17;21.70;74.10
64705;DHT22;51131;52.298;13.686;2022-07-21T10:03:47;21.70;74.10
64705;DHT22;51131;52.298;13.686;2022-07-21T10:06:15;21.70;74.10
64705;DHT22;51131;52.298;13.686;2022-07-21T10:08:42;21.70;74.20
64705;DHT22;51131;52.298;13.686;2022-07-21T10:11:10;21.60;74.00
64705;DHT22;51131;52.298;13.686;2022-07-21T10:13:44;21.60;74.10
64705;DHT22;51131;52.298;13.686;2022-07-21T10:16:11;21.80;74.40
64705;DHT22;51131;52.298;13.686;2022-07-21T10:18:47;21.60;74.20
64705;DHT22;51131;52.298;13.686;2022-07-21T10:21:23;21.60;74.00
64705;DHT22;51131;52.298;13.686;2022-07-21T10:23:53;21.60;74.20
64705;DHT22;51131;52.298;13.686;2022-07-21T10:26:21;21.60;74.00
64705;DHT22;51131;52.298;13.686;2022-07-21T10:28:48;21.60;74.20
64705;DHT22;51131;52.298;13.686;2022-07-21T10:31:16;21.60;74.10
64705;DHT22;51131;52.298;13.686;2022-07-21T10:36:11;21.60;74.40
64705;DHT22;51131;52.298;13.686;2022-07-21T10:38:38;21.60;74.40
64705;DHT22;51131;52.298;13.686;2022-07-21T10:41:05;21.60;74.50
64705;DHT22;51131;52.298;13.686;2022-07-21T10:43:35;21.60;74.60
64705;DHT22;51131;52.298;13.686;2022-07-21T10:46:03;21.60;74.50
64705;DHT22;51131;52.298;13.686;2022-07-21T10:51:07;21.60;74.50
64705;DHT22;51131;52.298;13.686;2022-07-21T10:53:35;21.60;75.10
64705;DHT22;51131;52.298;13.686;2022-07-21T10:56:02;21.60;74.70
64705;DHT22;51131;52.298;13.686;2022-07-21T11:03:24;21.50;74.70
64705;DHT22;51131;52.298;13.686;2022-07-21T11:08:36;21.50;74.60
64705;DHT22;51131;52.298;13.686;2022-07-21T11:11:10;21.50;74.70
64705;DHT22;51131;52.298;13.686;2022-07-21T11:19:42;21.50;74.90
64705;DHT22;51131;52.298;13.686;2022-07-21T11:24:39;21.50;75.00
64705;DHT22;51131;52.298;13.686;2022-07-21T11:27:07;21.50;75.00
64705;DHT22;51131;52.298;13.686;2022-07-21T11:29:35;21.60;75.20
64705;DHT22;51131;52.298;13.686;2022-07-21T11:32:02;21.60;74.80
64705;DHT22;51131;52.298;13.686;2022-07-21T11:35:12;21.50;74.90
64705;DHT22;51131;52.298;13.686;2022-07-21T11:37:26;21.60;74.70
64705;DHT22;51131;52.298;13.686;2022-07-21T11:40:07;21.60;74.70
64705;DHT22;51131;52.298;13.686;2022-07-21T11:42:35;21.60;74.60
64705;DHT22;51131;52.298;13.686;2022-07-21T11:45:02;21.70;74.60
64705;DHT22;51131;52.298;13.686;2022-07-21T11:47:29;21.70;74.60
64705;DHT22;51131;52.298;13.686;2022-07-21T11:49:58;21.70;74.50
64705;DHT22;51131;52.298;13.686;2022-07-21T11:52:26;21.70;74.60
64705;DHT22;51131;52.298;13.686;2022-07-21T11:54:53;21.70;74.50
64705;DHT22;51131;52.298;13.686;2022-07-21T11:57:21;21.70;74.60
64705;DHT22;51131;52.298;13.686;2022-07-21T11:59:48;21.70;74.50
64705;DHT22;51131;52.298;13.686;2022-07-21T12:04:45;21.80;75.20
64705;DHT22;51131;52.298;13.686;2022-07-21T12:07:14;21.80;74.50
64705;DHT22;51131;52.298;13.686;2022-07-21T12:09:42;21.80;74.40
64705;DHT22;51131;52.298;13.686;2022-07-21T12:12:36;21.70;74.50
64705;DHT22;51131;52.298;13.686;2022-07-21T12:17:40;21.80;74.50
64705;DHT22;51131;52.298;13.686;2022-07-21T12:20:08;21.80;74.50
64705;DHT22;51131;52.298;13.686;2022-07-21T12:22:42;21.80;74.50
64705;DHT22;51131;52.298;13.686;2022-07-21T12:25:14;21.80;74.50
64705;DHT22;51131;52.298;13.686;2022-07-21T12:27:41;21.80;74.40
64705;DHT22;51131;52.298;13.686;2022-07-21T12:30:10;21.80;74.50
64705;DHT22;51131;52.298;13.686;2022-07-21T12:32:54;21.80;74.40
64705;DHT22;51131;52.298;13.686;2022-07-21T12:35:27;21.80;74.50
64705;DHT22;51131;52.298;13.686;2022-07-21T12:37:59;21.80;74.50
64705;DHT22;51131;52.298;13.686;2022-07-21T12:40:27;21.80;74.70
64705;DHT22;51131;52.298;13.686;2022-07-21T12:43:03;21.80;74.60
64705;DHT22;51131;52.298;13.686;2022-07-21T12:45:30;21.80;74.70
64705;DHT22;51131;52.298;13.686;2022-07-21T12:48:16;21.80;74.60
64705;DHT22;51131;52.298;13.686;2022-07-21T12:50:56;21.80;74.70
64705;DHT22;51131;52.298;13.686;2022-07-21T12:53:23;21.80;74.60
64705;DHT22;51131;52.298;13.686;2022-07-21T12:55:50;21.80;74.50
64705;DHT22;51131;52.298;13.686;2022-07-21T12:58:16;21.80;74.70
64705;DHT22;51131;52.298;13.686;2022-07-21T13:00:43;21.80;74.60
64705;DHT22;51131;52.298;13.686;2022-07-21T13:03:10;21.80;74.60
64705;DHT22;51131;52.298;13.686;2022-07-21T13:05:37;21.80;74.70
64705;DHT22;51131;52.298;13.686;2022-07-21T13:08:04;21.80;74.60
64705;DHT22;51131;52.298;13.686;2022-07-21T13:10:30;21.80;74.80
64705;DHT22;51131;52.298;13.686;2022-07-21T13:12:57;21.80;74.80
64705;DHT22;51131;52.298;13.686;2022-07-21T13:15:24;21.80;74.90
64705;DHT22;51131;52.298;13.686;2022-07-21T13:17:50;21.80;75.00
64705;DHT22;51131;52.298;13.686;2022-07-21T13:20:17;21.70;74.90
64705;DHT22;51131;52.298;13.686;2022-07-21T13:22:44;21.70;75.10
64705;DHT22;51131;52.298;13.686;2022-07-21T13:25:11;21.70;75.10
64705;DHT22;51131;52.298;13.686;2022-07-21T13:27:38;21.70;75.20
64705;DHT22;51131;52.298;13.686;2022-07-21T13:30:07;21.70;74.90
64705;DHT22;51131;52.298;13.686;2022-07-21T13:32:34;21.70;75.20
64705;DHT22;51131;52.298;13.686;2022-07-21T13:35:01;21.70;75.20
64705;DHT22;51131;52.298;13.686;2022-07-21T13:37:48;21.70;75.20
64705;DHT22;51131;52.298;13.686;2022-07-21T13:40:15;21.70;75.50
64705;DHT22;51131;52.298;13.686;2022-07-21T13:43:05;21.70;75.50
64705;DHT22;51131;52.298;13.686;2022-07-21T13:45:52;21.70;75.60
64705;DHT22;51131;52.298;13.686;2022-07-21T13:48:19;21.70;75.60
64705;DHT22;51131;52.298;13.686;2022-07-21T13:50:45;21.70;75.80
64705;DHT22;51131;52.298;13.686;2022-07-21T13:53:12;21.70;75.70
64705;DHT22;51131;52.298;13.686;2022-07-21T13:55:39;21.70;75.80
64705;DHT22;51131;52.298;13.686;2022-07-21T13:58:06;21.70;75.90
64705;DHT22;51131;52.298;13.686;2022-07-21T14:00:35;21.70;76.00
64705;DHT22;51131;52.298;13.686;2022-07-21T14:03:09;21.70;76.10
64705;DHT22;51131;52.298;13.686;2022-07-21T14:05:35;21.70;76.00
64705;DHT22;51131;52.298;13.686;2022-07-21T14:08:02;21.70;76.10
64705;DHT22;51131;52.298;13.686;2022-07-21T14:10:29;21.70;76.20
64705;DHT22;51131;52.298;13.686;2022-07-21T14:12:56;21.70;76.40
64705;DHT22;51131;52.298;13.686;2022-07-21T14:15:23;21.70;76.50
64705;DHT22;51131;52.298;13.686;2022-07-21T14:17:49;21.70;76.50
64705;DHT22;51131;52.298;13.686;2022-07-21T14:20:22;21.70;76.60
64705;DHT22;51131;52.298;13.686;2022-07-21T14:22:52;21.60;76.60
64705;DHT22;51131;52.298;13.686;2022-07-21T14:25:19;21.60;76.50
64705;DHT22;51131;52.298;13.686;2022-07-21T14:27:46;21.60;76.40
64705;DHT22;51131;52.298;13.686;2022-07-21T14:30:13;21.70;76.70
64705;DHT22;51131;52.298;13.686;2022-07-21T14:32:40;21.60;76.40
64705;DHT22;51131;52.298;13.686;2022-07-21T14:35:07;21.60;76.70
64705;DHT22;51131;52.298;13.686;2022-07-21T14:37:35;21.60;76.40
64705;DHT22;51131;52.298;13.686;2022-07-21T14:40:02;21.70;77.00
64705;DHT22;51131;52.298;13.686;2022-07-21T14:42:31;21.70;79.00
64705;DHT22;51131;52.298;13.686;2022-07-21T14:44:57;21.80;80.00
64705;DHT22;51131;52.298;13.686;2022-07-21T14:47:24;21.90;81.00
64705;DHT22;51131;52.298;13.686;2022-07-21T14:49:51;22.00;81.40
64705;DHT22;51131;52.298;13.686;2022-07-21T14:52:18;22.10;80.30
64705;DHT22;51131;52.298;13.686;2022-07-21T14:54:45;22.20;79.70
64705;DHT22;51131;52.298;13.686;2022-07-21T14:57:12;22.20;78.90
64705;DHT22;51131;52.298;13.686;2022-07-21T14:59:38;22.20;78.50
64705;DHT22;51131;52.298;13.686;2022-07-21T15:02:05;22.20;78.40
64705;DHT22;51131;52.298;13.686;2022-07-21T15:04:39;22.50;78.70
64705;DHT22;51131;52.298;13.686;2022-07-21T15:07:06;22.10;78.30
64705;DHT22;51131;52.298;13.686;2022-07-21T15:09:33;22.10;78.30
64705;DHT22;51131;52.298;13.686;2022-07-21T15:12:00;22.10;78.50
64705;DHT22;51131;52.298;13.686;2022-07-21T15:14:26;22.10;78.20
64705;DHT22;51131;52.298;13.686;2022-07-21T15:16:53;22.10;78.20
64705;DHT22;51131;52.298;13.686;2022-07-21T15:19:20;22.10;78.00
64705;DHT22;51131;52.298;13.686;2022-07-21T15:21:47;22.00;78.00
64705;DHT22;51131;52.298;13.686;2022-07-21T15:24:14;22.00;77.80
64705;DHT22;51131;52.298;13.686;2022-07-21T15:26:42;22.00;77.90
64705;DHT22;51131;52.298;13.686;2022-07-21T15:29:09;22.00;78.10
64705;DHT22;51131;52.298;13.686;2022-07-21T15:31:35;22.00;78.10
64705;DHT22;51131;52.298;13.686;2022-07-21T15:34:02;22.00;78.00
64705;DHT22;51131;52.298;13.686;2022-07-21T15:36:29;22.00;78.10
64705;DHT22;51131;52.298;13.686;2022-07-21T15:38:56;22.00;78.10
64705;DHT22;51131;52.298;13.686;2022-07-21T15:41:24;22.20;78.40
64705;DHT22;51131;52.298;13.686;2022-07-21T15:44:10;22.00;78.10
64705;DHT22;51131;52.298;13.686;2022-07-21T15:46:37;22.00;78.00
64705;DHT22;51131;52.298;13.686;2022-07-21T15:49:05;22.00;78.20
64705;DHT22;51131;52.298;13.686;2022-07-21T15:51:32;21.90;78.00
64705;DHT22;51131;52.298;13.686;2022-07-21T15:53:59;22.00;77.90
64705;DHT22;51131;52.298;13.686;2022-07-21T15:56:26;21.90;77.90
64705;DHT22;51131;52.298;13.686;2022-07-21T15:58:52;21.90;77.90
64705;DHT22;51131;52.298;13.686;2022-07-21T16:01:38;21.90;77.90